sensor_id;sensor_type;location;lat;lon;timestamp;temperature;humidity
26272;DHT22;13997;48.902;12.472;2023-05-14T00:00:14;281.80;2278.40
26272;DHT22;13997;48.902;12.472;2023-05-14T00:02:40;281.80;2278.40
26272;DHT22;13997;48.902;12.472;2023-05-14T00:05:07;281.70;2278.40
26272;DHT22;13997;48.902;12.472;2023-05-14T00:07:33;281.70;2278.40
26272;DHT22;13997;48.902;12.472;2023-05-14T00:09:58;281.70;2278.40
26272;DHT22;13997;48.902;12.472;2023-05-14T00:12:25;281.60;2278.40
26272;DHT22;13997;48.902;12.472;2023-05-14T00:14:51;281.60;2278.40
26272;DHT22;13997;48.902;12.472;2023-05-14T00:17:17;281.60;2278.40
26272;DHT22;13997;48.902;12.472;2023-05-14T00:19:43;256.90;2252.80
26272;DHT22;13997;48.902;12.472;2023-05-14T00:22:09;256.90;2252.80
26272;DHT22;13997;48.902;12.472;2023-05-14T00:24:35;256.90;2252.80
26272;DHT22;13997;48.902;12.472;2023-05-14T00:27:01;256.80;2252.80
26272;DHT22;13997;48.902;12.472;2023-05-14T00:29:27;256.80;2252.80
26272;DHT22;13997;48.902;12.472;2023-05-14T00:31:53;256.80;2252.80
26272;DHT22;13997;48.902;12.472;2023-05-14T00:34:18;256.80;2252.80
26272;DHT22;13997;48.902;12.472;2023-05-14T00:36:44;256.80;2252.80
26272;DHT22;13997;48.902;12.472;2023-05-14T00:39:09;256.80;2252.80
26272;DHT22;13997;48.902;12.472;2023-05-14T00:41:35;256.80;2252.80
26272;DHT22;13997;48.902;12.472;2023-05-14T00:44:01;256.80;2252.80
26272;DHT22;13997;48.902;12.472;2023-05-14T00:46:26;256.80;2252.80
26272;DHT22;13997;48.902;12.472;2023-05-14T00:48:53;256.80;2252.80
26272;DHT22;13997;48.902;12.472;2023-05-14T00:51:19;256.90;2252.80
26272;DHT22;13997;48.902;12.472;2023-05-14T00:53:45;256.90;2252.80
26272;DHT22;13997;48.902;12.472;2023-05-14T00:56:11;256.90;2252.80
26272;DHT22;13997;48.902;12.472;2023-05-14T00:58:38;256.90;2252.80
26272;DHT22;13997;48.902;12.472;2023-05-14T01:01:03;256.90;2252.80
26272;DHT22;13997;48.902;12.472;2023-05-14T01:03:29;256.90;2252.80
26272;DHT22;13997;48.902;12.472;2023-05-14T01:09:05;256.90;2252.80
26272;DHT22;13997;48.902;12.472;2023-05-14T01:11:40;256.90;2252.80
26272;DHT22;13997;48.902;12.472;2023-05-14T01:14:33;256.80;2252.80
26272;DHT22;13997;48.902;12.472;2023-05-14T01:17:03;256.80;2252.80
26272;DHT22;13997;48.902;12.472;2023-05-14T01:19:38;256.80;2252.80
26272;DHT22;13997;48.902;12.472;2023-05-14T01:22:04;256.80;2252.80
26272;DHT22;13997;48.902;12.472;2023-05-14T01:24:30;256.70;2252.80
26272;DHT22;13997;48.902;12.472;2023-05-14T01:27:09;256.70;2252.80
26272;DHT22;13997;48.902;12.472;2023-05-14T01:29:38;256.70;2252.80
26272;DHT22;13997;48.902;12.472;2023-05-14T01:32:06;256.70;2252.80
26272;DHT22;13997;48.902;12.472;2023-05-14T01:34:34;256.70;2252.80
26272;DHT22;13997;48.902;12.472;2023-05-14T01:37:01;256.60;2252.80
26272;DHT22;13997;48.902;12.472;2023-05-14T01:39:27;256.60;2252.80
26272;DHT22;13997;48.902;12.472;2023-05-14T01:41:53;256.50;2252.80
26272;DHT22;13997;48.902;12.472;2023-05-14T01:44:20;256.40;2252.80
26272;DHT22;13997;48.902;12.472;2023-05-14T01:46:46;256.40;2252.80
26272;DHT22;13997;48.902;12.472;2023-05-14T01:49:11;256.30;2252.80
26272;DHT22;13997;48.902;12.472;2023-05-14T01:51:37;256.30;2252.80
26272;DHT22;13997;48.902;12.472;2023-05-14T01:54:03;256.30;2252.80
26272;DHT22;13997;48.902;12.472;2023-05-14T01:56:28;256.30;2252.80
26272;DHT22;13997;48.902;12.472;2023-05-14T01:58:54;256.30;2252.80
26272;DHT22;13997;48.902;12.472;2023-05-14T02:01:21;256.30;2252.80
26272;DHT22;13997;48.902;12.472;2023-05-14T02:03:46;256.20;2252.80
26272;DHT22;13997;48.902;12.472;2023-05-14T02:06:12;256.20;2252.80
26272;DHT22;13997;48.902;12.472;2023-05-14T02:08:38;256.20;2252.80
26272;DHT22;13997;48.902;12.472;2023-05-14T02:11:03;256.10;2252.80
26272;DHT22;13997;48.902;12.472;2023-05-14T02:13:29;256.10;2252.80
26272;DHT22;13997;48.902;12.472;2023-05-14T02:15:54;256.10;2252.80
26272;DHT22;13997;48.902;12.472;2023-05-14T02:18:20;256.10;2252.80
26272;DHT22;13997;48.902;12.472;2023-05-14T02:20:46;256.10;2252.80
26272;DHT22;13997;48.902;12.472;2023-05-14T02:23:11;256.00;2252.80
26272;DHT22;13997;48.902;12.472;2023-05-14T02:25:37;256.00;2252.80
26272;DHT22;13997;48.902;12.472;2023-05-14T02:28:03;231.30;2252.80
26272;DHT22;13997;48.902;12.472;2023-05-14T02:30:28;231.30;2252.80
26272;DHT22;13997;48.902;12.472;2023-05-14T02:32:56;231.30;2252.80
26272;DHT22;13997;48.902;12.472;2023-05-14T02:35:21;231.20;2252.80
26272;DHT22;13997;48.902;12.472;2023-05-14T02:37:47;231.20;2252.80
26272;DHT22;13997;48.902;12.472;2023-05-14T02:40:13;231.20;2252.80
26272;DHT22;13997;48.902;12.472;2023-05-14T02:42:38;231.20;2252.80
26272;DHT22;13997;48.902;12.472;2023-05-14T02:45:04;231.20;2252.80
26272;DHT22;13997;48.902;12.472;2023-05-14T02:47:30;231.20;2252.80
26272;DHT22;13997;48.902;12.472;2023-05-14T02:49:56;231.20;2252.80
26272;DHT22;13997;48.902;12.472;2023-05-14T02:52:21;231.20;2252.80
26272;DHT22;13997;48.902;12.472;2023-05-14T02:54:47;231.20;2252.80
26272;DHT22;13997;48.902;12.472;2023-05-14T02:57:12;231.20;2252.80
26272;DHT22;13997;48.902;12.472;2023-05-14T02:59:38;231.10;2252.80
26272;DHT22;13997;48.902;12.472;2023-05-14T03:02:04;231.10;2252.80
26272;DHT22;13997;48.902;12.472;2023-05-14T03:04:29;231.10;2252.80
26272;DHT22;13997;48.902;12.472;2023-05-14T03:06:55;231.10;2252.80
26272;DHT22;13997;48.902;12.472;2023-05-14T03:09:21;231.10;2252.80
26272;DHT22;13997;48.902;12.472;2023-05-14T03:11:46;231.10;2252.80
26272;DHT22;13997;48.902;12.472;2023-05-14T03:14:12;231.00;2252.80
26272;DHT22;13997;48.902;12.472;2023-05-14T03:16:38;231.00;2252.80
26272;DHT22;13997;48.902;12.472;2023-05-14T03:19:06;231.00;2252.80
26272;DHT22;13997;48.902;12.472;2023-05-14T03:21:32;231.00;2252.80
26272;DHT22;13997;48.902;12.472;2023-05-14T03:23:57;231.00;2252.80
26272;DHT22;13997;48.902;12.472;2023-05-14T03:26:23;230.90;2252.80
26272;DHT22;13997;48.902;12.472;2023-05-14T03:28:50;230.90;2252.80
26272;DHT22;13997;48.902;12.472;2023-05-14T03:31:15;230.90;2252.80
26272;DHT22;13997;48.902;12.472;2023-05-14T03:33:41;230.80;2252.80
26272;DHT22;13997;48.902;12.472;2023-05-14T03:36:07;230.80;2252.80
26272;DHT22;13997;48.902;12.472;2023-05-14T03:38:32;230.80;2252.80
26272;DHT22;13997;48.902;12.472;2023-05-14T03:40:58;230.80;2252.80
26272;DHT22;13997;48.902;12.472;2023-05-14T03:43:23;230.80;2252.80
26272;DHT22;13997;48.902;12.472;2023-05-14T03:45:49;230.80;2252.80
26272;DHT22;13997;48.902;12.472;2023-05-14T03:48:17;230.70;2252.80
26272;DHT22;13997;48.902;12.472;2023-05-14T03:50:43;230.80;2252.80
26272;DHT22;13997;48.902;12.472;2023-05-14T03:53:09;230.70;2252.80
26272;DHT22;13997;48.902;12.472;2023-05-14T03:55:34;230.70;2252.80
26272;DHT22;13997;48.902;12.472;2023-05-14T03:58:01;230.70;2252.80
26272;DHT22;13997;48.902;12.472;2023-05-14T04:00:27;230.70;2252.80
26272;DHT22;13997;48.902;12.472;2023-05-14T04:02:53;230.70;2252.80
26272;DHT22;13997;48.902;12.472;2023-05-14T04:05:18;230.70;2252.80
26272;DHT22;13997;48.902;12.472;2023-05-14T04:07:44;230.70;2252.80
26272;DHT22;13997;48.902;12.472;2023-05-14T04:10:11;230.70;2252.80
26272;DHT22;13997;48.902;12.472;2023-05-14T04:12:37;230.70;2252.80
26272;DHT22;13997;48.902;12.472;2023-05-14T04:15:03;230.70;2252.80
26272;DHT22;13997;48.902;12.472;2023-05-14T04:17:28;230.70;2252.80
26272;DHT22;13997;48.902;12.472;2023-05-14T04:19:54;230.80;2252.80
26272;DHT22;13997;48.902;12.472;2023-05-14T04:22:19;230.80;2252.80
26272;DHT22;13997;48.902;12.472;2023-05-14T04:24:45;230.80;2252.80
26272;DHT22;13997;48.902;12.472;2023-05-14T04:27:10;230.80;2252.80
26272;DHT22;13997;48.902;12.472;2023-05-14T04:29:36;230.80;2252.80
26272;DHT22;13997;48.902;12.472;2023-05-14T04:32:01;230.80;2252.80
26272;DHT22;13997;48.902;12.472;2023-05-14T04:34:27;230.80;2252.80
26272;DHT22;13997;48.902;12.472;2023-05-14T04:36:53;230.90;2252.80
26272;DHT22;13997;48.902;12.472;2023-05-14T04:39:18;230.90;2252.80
26272;DHT22;13997;48.902;12.472;2023-05-14T04:41:44;230.90;2252.80
26272;DHT22;13997;48.902;12.472;2023-05-14T04:44:11;231.00;2252.80
26272;DHT22;13997;48.902;12.472;2023-05-14T04:46:37;231.00;2252.80
26272;DHT22;13997;48.902;12.472;2023-05-14T04:49:02;231.00;2252.80
26272;DHT22;13997;48.902;12.472;2023-05-14T04:51:28;231.10;2252.80
26272;DHT22;13997;48.902;12.472;2023-05-14T04:53:54;231.10;2252.80
26272;DHT22;13997;48.902;12.472;2023-05-14T04:56:19;231.20;2252.80
26272;DHT22;13997;48.902;12.472;2023-05-14T04:58:45;231.30;2252.80
26272;DHT22;13997;48.902;12.472;2023-05-14T05:01:11;256.00;2252.80
26272;DHT22;13997;48.902;12.472;2023-05-14T05:03:36;256.00;2252.80
26272;DHT22;13997;48.902;12.472;2023-05-14T05:06:02;256.10;2252.80
26272;DHT22;13997;48.902;12.472;2023-05-14T05:08:28;256.20;2252.80
26272;DHT22;13997;48.902;12.472;2023-05-14T05:10:53;256.30;2252.80
26272;DHT22;13997;48.902;12.472;2023-05-14T05:13:19;256.40;2252.80
26272;DHT22;13997;48.902;12.472;2023-05-14T05:15:44;256.60;2252.80
26272;DHT22;13997;48.902;12.472;2023-05-14T05:18:10;256.70;2252.80
26272;DHT22;13997;48.902;12.472;2023-05-14T05:20:35;256.90;2252.80
26272;DHT22;13997;48.902;12.472;2023-05-14T05:23:01;281.70;2278.40
26272;DHT22;13997;48.902;12.472;2023-05-14T05:25:27;281.90;2278.40
26272;DHT22;13997;48.902;12.472;2023-05-14T05:27:52;282.00;2278.40
26272;DHT22;13997;48.902;12.472;2023-05-14T05:30:18;282.10;2278.40
26272;DHT22;13997;48.902;12.472;2023-05-14T05:32:43;282.30;2278.40
26272;DHT22;13997;48.902;12.472;2023-05-14T05:35:09;282.50;2278.40
26272;DHT22;13997;48.902;12.472;2023-05-14T05:37:35;307.30;2304.00
26272;DHT22;13997;48.902;12.472;2023-05-14T05:40:00;307.40;2304.00
26272;DHT22;13997;48.902;12.472;2023-05-14T05:42:26;307.60;2304.00
26272;DHT22;13997;48.902;12.472;2023-05-14T05:44:51;307.70;2304.00
26272;DHT22;13997;48.902;12.472;2023-05-14T05:47:17;307.80;2304.00
26272;DHT22;13997;48.902;12.472;2023-05-14T05:49:42;308.00;2304.00
26272;DHT22;13997;48.902;12.472;2023-05-14T05:52:08;332.80;2329.60
26272;DHT22;13997;48.902;12.472;2023-05-14T05:54:34;332.90;2329.60
26272;DHT22;13997;48.902;12.472;2023-05-14T05:57:00;333.10;2329.60
26272;DHT22;13997;48.902;12.472;2023-05-14T05:59:25;333.20;2329.60
26272;DHT22;13997;48.902;12.472;2023-05-14T06:01:51;333.40;2329.60
26272;DHT22;13997;48.902;12.472;2023-05-14T06:04:17;333.60;2329.60
26272;DHT22;13997;48.902;12.472;2023-05-14T06:06:42;333.70;2329.60
26272;DHT22;13997;48.902;12.472;2023-05-14T06:09:08;358.40;2329.60
26272;DHT22;13997;48.902;12.472;2023-05-14T06:11:34;358.60;2329.60
26272;DHT22;13997;48.902;12.472;2023-05-14T06:14:00;358.80;2329.60
26272;DHT22;13997;48.902;12.472;2023-05-14T06:16:25;359.00;2329.60
26272;DHT22;13997;48.902;12.472;2023-05-14T06:18:51;359.10;2329.60
26272;DHT22;13997;48.902;12.472;2023-05-14T06:21:17;359.10;2329.60
26272;DHT22;13997;48.902;12.472;2023-05-14T06:23:43;359.20;2329.60
26272;DHT22;13997;48.902;12.472;2023-05-14T06:26:09;359.20;2329.60
26272;DHT22;13997;48.902;12.472;2023-05-14T06:28:35;359.10;2329.60
26272;DHT22;13997;48.902;12.472;2023-05-14T06:31:00;359.10;2329.60
26272;DHT22;13997;48.902;12.472;2023-05-14T06:33:26;359.10;2329.60
26272;DHT22;13997;48.902;12.472;2023-05-14T06:35:57;359.20;2329.60
26272;DHT22;13997;48.902;12.472;2023-05-14T06:38:23;359.20;2329.60
26272;DHT22;13997;48.902;12.472;2023-05-14T06:40:49;359.20;2329.60
26272;DHT22;13997;48.902;12.472;2023-05-14T06:43:15;359.30;2329.60
26272;DHT22;13997;48.902;12.472;2023-05-14T06:45:40;359.30;2329.60
26272;DHT22;13997;48.902;12.472;2023-05-14T06:48:06;359.30;2329.60
26272;DHT22;13997;48.902;12.472;2023-05-14T06:50:34;384.00;2329.60
26272;DHT22;13997;48.902;12.472;2023-05-14T06:53:00;384.00;2329.60
26272;DHT22;13997;48.902;12.472;2023-05-14T06:55:25;384.00;2329.60
26272;DHT22;13997;48.902;12.472;2023-05-14T06:57:51;359.30;2329.60
26272;DHT22;13997;48.902;12.472;2023-05-14T07:00:17;384.00;2329.60
26272;DHT22;13997;48.902;12.472;2023-05-14T07:02:42;384.10;2329.60
26272;DHT22;13997;48.902;12.472;2023-05-14T07:05:09;384.10;2329.60
26272;DHT22;13997;48.902;12.472;2023-05-14T07:07:34;384.20;2329.60
26272;DHT22;13997;48.902;12.472;2023-05-14T07:10:00;384.20;2329.60
26272;DHT22;13997;48.902;12.472;2023-05-14T07:12:26;384.30;2329.60
26272;DHT22;13997;48.902;12.472;2023-05-14T07:14:51;384.50;2329.60
26272;DHT22;13997;48.902;12.472;2023-05-14T07:17:17;384.50;2329.60
26272;DHT22;13997;48.902;12.472;2023-05-14T07:19:43;384.50;2329.60
26272;DHT22;13997;48.902;12.472;2023-05-14T07:22:08;384.50;2329.60
26272;DHT22;13997;48.902;12.472;2023-05-14T07:24:34;384.50;2329.60
26272;DHT22;13997;48.902;12.472;2023-05-14T07:26:59;384.50;2329.60
26272;DHT22;13997;48.902;12.472;2023-05-14T07:29:26;384.50;2329.60
26272;DHT22;13997;48.902;12.472;2023-05-14T07:31:51;384.60;2329.60
26272;DHT22;13997;48.902;12.472;2023-05-14T07:34:17;384.70;2329.60
26272;DHT22;13997;48.902;12.472;2023-05-14T07:36:43;384.90;2329.60
26272;DHT22;13997;48.902;12.472;2023-05-14T07:39:09;409.80;2355.20
26272;DHT22;13997;48.902;12.472;2023-05-14T07:46:27;410.10;2355.20
26272;DHT22;13997;48.902;12.472;2023-05-14T07:48:52;435.30;2355.20
26272;DHT22;13997;48.902;12.472;2023-05-14T07:51:18;410.40;2355.20
26272;DHT22;13997;48.902;12.472;2023-05-14T07:53:43;410.10;2355.20
26272;DHT22;13997;48.902;12.472;2023-05-14T07:56:09;410.30;2355.20
26272;DHT22;13997;48.902;12.472;2023-05-14T07:58:34;410.30;2355.20
26272;DHT22;13997;48.902;12.472;2023-05-14T08:01:00;410.20;2355.20
26272;DHT22;13997;48.902;12.472;2023-05-14T08:03:28;410.20;2355.20
26272;DHT22;13997;48.902;12.472;2023-05-14T08:05:53;410.10;2355.20
26272;DHT22;13997;48.902;12.472;2023-05-14T08:08:19;410.20;2355.20
26272;DHT22;13997;48.902;12.472;2023-05-14T08:10:44;410.20;2355.20
26272;DHT22;13997;48.902;12.472;2023-05-14T08:13:10;435.20;2355.20
26272;DHT22;13997;48.902;12.472;2023-05-14T08:15:36;435.30;2355.20
26272;DHT22;13997;48.902;12.472;2023-05-14T08:18:01;435.50;2355.20
26272;DHT22;13997;48.902;12.472;2023-05-14T08:20:29;435.60;2355.20
26272;DHT22;13997;48.902;12.472;2023-05-14T08:22:56;435.80;2355.20
26272;DHT22;13997;48.902;12.472;2023-05-14T08:25:22;436.00;2355.20
26272;DHT22;13997;48.902;12.472;2023-05-14T08:27:48;436.10;2355.20
26272;DHT22;13997;48.902;12.472;2023-05-14T12:15:57;460.80;2380.80
26272;DHT22;13997;48.902;12.472;2023-05-14T12:18:24;512.10;2380.80
26272;DHT22;13997;48.902;12.472;2023-05-14T12:20:51;512.20;2380.80
26272;DHT22;13997;48.902;12.472;2023-05-14T12:23:26;512.10;2380.80
26272;DHT22;13997;48.902;12.472;2023-05-14T12:25:53;487.30;2380.80
26272;DHT22;13997;48.902;12.472;2023-05-14T12:28:19;487.30;2380.80
26272;DHT22;13997;48.902;12.472;2023-05-14T12:30:45;487.20;2380.80
26272;DHT22;13997;48.902;12.472;2023-05-14T12:33:12;487.30;2380.80
26272;DHT22;13997;48.902;12.472;2023-05-14T12:35:38;512.10;2380.80
26272;DHT22;13997;48.902;12.472;2023-05-14T12:38:03;512.20;2380.80
26272;DHT22;13997;48.902;12.472;2023-05-14T12:40:29;512.50;2380.80
26272;DHT22;13997;48.902;12.472;2023-05-14T12:42:55;512.60;2380.80
26272;DHT22;13997;48.902;12.472;2023-05-14T12:45:20;512.40;2380.80
26272;DHT22;13997;48.902;12.472;2023-05-14T12:47:46;512.80;2380.80
26272;DHT22;13997;48.902;12.472;2023-05-14T12:50:12;512.70;2380.80
26272;DHT22;13997;48.902;12.472;2023-05-14T12:52:38;512.70;2380.80
26272;DHT22;13997;48.902;12.472;2023-05-14T12:55:04;512.50;2380.80
26272;DHT22;13997;48.902;12.472;2023-05-14T12:57:30;512.00;2380.80
26272;DHT22;13997;48.902;12.472;2023-05-14T12:59:56;486.70;2380.80
26272;DHT22;13997;48.902;12.472;2023-05-14T13:02:21;436.00;2355.20
26272;DHT22;13997;48.902;12.472;2023-05-14T13:04:47;410.10;2355.20
26272;DHT22;13997;48.902;12.472;2023-05-14T13:12:05;384.60;2329.60
26272;DHT22;13997;48.902;12.472;2023-05-14T13:14:31;333.70;2329.60
26272;DHT22;13997;48.902;12.472;2023-05-14T13:16:56;333.50;2329.60
26272;DHT22;13997;48.902;12.472;2023-05-14T13:19:22;333.30;2329.60
26272;DHT22;13997;48.902;12.472;2023-05-14T13:21:47;333.10;2329.60
26272;DHT22;13997;48.902;12.472;2023-05-14T13:24:13;332.90;2329.60
26272;DHT22;13997;48.902;12.472;2023-05-14T13:26:38;332.80;2329.60
26272;DHT22;13997;48.902;12.472;2023-05-14T13:29:04;308.10;2304.00
26272;DHT22;13997;48.902;12.472;2023-05-14T13:31:30;332.80;2329.60
26272;DHT22;13997;48.902;12.472;2023-05-14T13:33:55;332.80;2329.60
26272;DHT22;13997;48.902;12.472;2023-05-14T13:36:22;332.90;2329.60
26272;DHT22;13997;48.902;12.472;2023-05-14T13:38:48;332.90;2329.60
26272;DHT22;13997;48.902;12.472;2023-05-14T13:41:13;332.90;2329.60
26272;DHT22;13997;48.902;12.472;2023-05-14T13:43:39;332.90;2329.60
26272;DHT22;13997;48.902;12.472;2023-05-14T13:46:05;333.00;2329.60
26272;DHT22;13997;48.902;12.472;2023-05-14T13:48:31;333.10;2329.60
26272;DHT22;13997;48.902;12.472;2023-05-14T13:50:57;333.10;2329.60
26272;DHT22;13997;48.902;12.472;2023-05-14T13:53:23;333.10;2329.60
26272;DHT22;13997;48.902;12.472;2023-05-14T13:55:49;333.00;2329.60
26272;DHT22;13997;48.902;12.472;2023-05-14T13:58:21;333.10;2329.60
26272;DHT22;13997;48.902;12.472;2023-05-14T14:00:46;333.10;2329.60
26272;DHT22;13997;48.902;12.472;2023-05-14T14:03:12;333.10;2329.60
26272;DHT22;13997;48.902;12.472;2023-05-14T14:05:38;333.20;2329.60
26272;DHT22;13997;48.902;12.472;2023-05-14T14:08:03;333.20;2329.60
26272;DHT22;13997;48.902;12.472;2023-05-14T14:10:29;333.20;2329.60
26272;DHT22;13997;48.902;12.472;2023-05-14T14:12:55;333.20;2329.60
26272;DHT22;13997;48.902;12.472;2023-05-14T14:15:21;333.10;2329.60
26272;DHT22;13997;48.902;12.472;2023-05-14T14:17:47;333.10;2329.60
26272;DHT22;13997;48.902;12.472;2023-05-14T14:20:13;333.10;2329.60
26272;DHT22;13997;48.902;12.472;2023-05-14T14:22:39;333.10;2329.60
26272;DHT22;13997;48.902;12.472;2023-05-14T14:25:05;333.10;2329.60
26272;DHT22;13997;48.902;12.472;2023-05-14T14:27:32;333.10;2329.60
26272;DHT22;13997;48.902;12.472;2023-05-14T14:30:11;333.10;2329.60
26272;DHT22;13997;48.902;12.472;2023-05-14T14:32:49;333.10;2329.60
26272;DHT22;13997;48.902;12.472;2023-05-14T14:35:17;333.10;2329.60
26272;DHT22;13997;48.902;12.472;2023-05-14T14:37:43;333.10;2329.60
26272;DHT22;13997;48.902;12.472;2023-05-14T14:40:14;333.10;2329.60
26272;DHT22;13997;48.902;12.472;2023-05-14T14:42:40;333.10;2329.60
26272;DHT22;13997;48.902;12.472;2023-05-14T14:45:06;333.10;2329.60
26272;DHT22;13997;48.902;12.472;2023-05-14T14:47:32;333.20;2329.60
26272;DHT22;13997;48.902;12.472;2023-05-14T14:49:57;333.20;2329.60
26272;DHT22;13997;48.902;12.472;2023-05-14T14:52:25;333.30;2329.60
26272;DHT22;13997;48.902;12.472;2023-05-14T14:54:52;333.40;2329.60
26272;DHT22;13997;48.902;12.472;2023-05-14T14:57:17;333.40;2329.60
26272;DHT22;13997;48.902;12.472;2023-05-14T14:59:43;333.30;2329.60
26272;DHT22;13997;48.902;12.472;2023-05-14T15:02:09;333.30;2329.60
26272;DHT22;13997;48.902;12.472;2023-05-14T15:04:35;333.30;2329.60
26272;DHT22;13997;48.902;12.472;2023-05-14T15:07:01;333.20;2329.60
26272;DHT22;13997;48.902;12.472;2023-05-14T15:09:26;333.20;2329.60
26272;DHT22;13997;48.902;12.472;2023-05-14T15:11:52;333.10;2329.60
26272;DHT22;13997;48.902;12.472;2023-05-14T15:14:18;333.00;2329.60
26272;DHT22;13997;48.902;12.472;2023-05-14T15:16:43;333.00;2329.60
26272;DHT22;13997;48.902;12.472;2023-05-14T15:19:09;333.10;2329.60
26272;DHT22;13997;48.902;12.472;2023-05-14T15:21:35;333.10;2329.60
26272;DHT22;13997;48.902;12.472;2023-05-14T15:24:02;333.10;2329.60
26272;DHT22;13997;48.902;12.472;2023-05-14T15:26:28;333.10;2329.60
26272;DHT22;13997;48.902;12.472;2023-05-14T15:28:54;333.10;2329.60
26272;DHT22;13997;48.902;12.472;2023-05-14T15:31:20;333.10;2329.60
26272;DHT22;13997;48.902;12.472;2023-05-14T15:33:45;333.10;2329.60
26272;DHT22;13997;48.902;12.472;2023-05-14T15:36:11;333.10;2329.60
26272;DHT22;13997;48.902;12.472;2023-05-14T15:38:36;333.20;2329.60
26272;DHT22;13997;48.902;12.472;2023-05-14T15:41:04;333.30;2329.60
26272;DHT22;13997;48.902;12.472;2023-05-14T15:43:30;333.40;2329.60
26272;DHT22;13997;48.902;12.472;2023-05-14T15:45:56;333.40;2329.60
26272;DHT22;13997;48.902;12.472;2023-05-14T15:48:21;333.40;2329.60
26272;DHT22;13997;48.902;12.472;2023-05-14T15:50:47;333.40;2329.60
26272;DHT22;13997;48.902;12.472;2023-05-14T15:53:13;333.60;2329.60
26272;DHT22;13997;48.902;12.472;2023-05-14T15:55:39;333.60;2329.60
26272;DHT22;13997;48.902;12.472;2023-05-14T15:58:05;333.70;2329.60
26272;DHT22;13997;48.902;12.472;2023-05-14T16:00:30;358.40;2329.60
26272;DHT22;13997;48.902;12.472;2023-05-14T16:02:56;358.60;2329.60
26272;DHT22;13997;48.902;12.472;2023-05-14T16:05:22;358.70;2329.60
26272;DHT22;13997;48.902;12.472;2023-05-14T16:07:47;358.70;2329.60
26272;DHT22;13997;48.902;12.472;2023-05-14T16:10:13;358.80;2329.60
26272;DHT22;13997;48.902;12.472;2023-05-14T16:12:39;358.90;2329.60
26272;DHT22;13997;48.902;12.472;2023-05-14T16:15:05;359.00;2329.60
26272;DHT22;13997;48.902;12.472;2023-05-14T16:17:32;359.10;2329.60
26272;DHT22;13997;48.902;12.472;2023-05-14T16:20:01;359.20;2329.60
26272;DHT22;13997;48.902;12.472;2023-05-14T16:22:26;359.10;2329.60
26272;DHT22;13997;48.902;12.472;2023-05-14T16:24:53;359.20;2329.60
26272;DHT22;13997;48.902;12.472;2023-05-14T16:27:19;359.20;2329.60
26272;DHT22;13997;48.902;12.472;2023-05-14T16:29:44;359.20;2329.60
26272;DHT22;13997;48.902;12.472;2023-05-14T16:32:10;359.20;2329.60
26272;DHT22;13997;48.902;12.472;2023-05-14T16:34:35;359.10;2329.60
26272;DHT22;13997;48.902;12.472;2023-05-14T16:37:01;359.00;2329.60
26272;DHT22;13997;48.902;12.472;2023-05-14T16:39:26;359.00;2329.60
26272;DHT22;13997;48.902;12.472;2023-05-14T16:41:52;359.00;2329.60
26272;DHT22;13997;48.902;12.472;2023-05-14T16:44:17;359.10;2329.60
26272;DHT22;13997;48.902;12.472;2023-05-14T16:46:43;359.10;2329.60
26272;DHT22;13997;48.902;12.472;2023-05-14T16:49:09;359.10;2329.60
26272;DHT22;13997;48.902;12.472;2023-05-14T16:51:34;359.10;2329.60
26272;DHT22;13997;48.902;12.472;2023-05-14T16:54:01;359.10;2329.60
26272;DHT22;13997;48.902;12.472;2023-05-14T16:56:27;358.90;2329.60
26272;DHT22;13997;48.902;12.472;2023-05-14T16:58:53;358.90;2329.60
26272;DHT22;13997;48.902;12.472;2023-05-14T17:01:19;358.80;2329.60
26272;DHT22;13997;48.902;12.472;2023-05-14T17:03:44;358.70;2329.60
26272;DHT22;13997;48.902;12.472;2023-05-14T17:06:11;358.70;2329.60
26272;DHT22;13997;48.902;12.472;2023-05-14T17:08:36;358.60;2329.60
26272;DHT22;13997;48.902;12.472;2023-05-14T17:11:02;358.50;2329.60
26272;DHT22;13997;48.902;12.472;2023-05-14T17:13:30;358.50;2329.60
26272;DHT22;13997;48.902;12.472;2023-05-14T17:15:57;358.50;2329.60
26272;DHT22;13997;48.902;12.472;2023-05-14T17:18:23;358.50;2329.60
26272;DHT22;13997;48.902;12.472;2023-05-14T17:20:48;358.60;2329.60
26272;DHT22;13997;48.902;12.472;2023-05-14T17:23:14;358.60;2329.60
26272;DHT22;13997;48.902;12.472;2023-05-14T17:25:40;358.60;2329.60
26272;DHT22;13997;48.902;12.472;2023-05-14T17:28:06;358.70;2329.60
26272;DHT22;13997;48.902;12.472;2023-05-14T17:30:31;358.70;2329.60
26272;DHT22;13997;48.902;12.472;2023-05-14T17:32:57;358.80;2329.60
26272;DHT22;13997;48.902;12.472;2023-05-14T17:35:22;358.80;2329.60
26272;DHT22;13997;48.902;12.472;2023-05-14T17:37:48;358.80;2329.60
26272;DHT22;13997;48.902;12.472;2023-05-14T17:40:14;358.90;2329.60
26272;DHT22;13997;48.902;12.472;2023-05-14T17:42:39;358.90;2329.60
26272;DHT22;13997;48.902;12.472;2023-05-14T17:45:05;358.90;2329.60
26272;DHT22;13997;48.902;12.472;2023-05-14T17:47:31;358.90;2329.60
26272;DHT22;13997;48.902;12.472;2023-05-14T17:49:57;359.00;2329.60
26272;DHT22;13997;48.902;12.472;2023-05-14T17:52:22;359.00;2329.60
26272;DHT22;13997;48.902;12.472;2023-05-14T17:54:48;358.90;2329.60
26272;DHT22;13997;48.902;12.472;2023-05-14T17:57:13;358.90;2329.60
26272;DHT22;13997;48.902;12.472;2023-05-14T17:59:39;358.80;2329.60
26272;DHT22;13997;48.902;12.472;2023-05-14T18:02:05;358.80;2329.60
26272;DHT22;13997;48.902;12.472;2023-05-14T18:04:32;358.80;2329.60
26272;DHT22;13997;48.902;12.472;2023-05-14T18:06:57;358.80;2329.60
26272;DHT22;13997;48.902;12.472;2023-05-14T18:09:25;358.80;2329.60
26272;DHT22;13997;48.902;12.472;2023-05-14T18:11:50;358.80;2329.60
26272;DHT22;13997;48.902;12.472;2023-05-14T18:14:16;358.80;2329.60
26272;DHT22;13997;48.902;12.472;2023-05-14T18:16:42;358.80;2329.60
26272;DHT22;13997;48.902;12.472;2023-05-14T18:19:08;358.70;2329.60
26272;DHT22;13997;48.902;12.472;2023-05-14T18:21:34;358.70;2329.60
26272;DHT22;13997;48.902;12.472;2023-05-14T18:23:59;358.70;2329.60
26272;DHT22;13997;48.902;12.472;2023-05-14T18:26:25;358.70;2329.60